createdAt,value
2023-04-02T00:02:23.157Z,9.10
2023-04-02T00:05:19.968Z,9.00
2023-04-02T00:07:58.217Z,9.10
2023-04-02T00:10:36.009Z,9.20
2023-04-02T00:13:14.321Z,8.90
2023-04-02T00:15:44.386Z,9.10
2023-04-02T00:18:18.419Z,8.80
2023-04-02T00:20:54.076Z,8.80
2023-04-02T00:23:21.450Z,8.80
2023-04-02T00:25:48.919Z,8.70
2023-04-02T00:28:22.637Z,8.90
2023-04-02T00:30:53.377Z,8.80
2023-04-02T00:33:23.906Z,8.80
2023-04-02T00:35:56.185Z,8.90
2023-04-02T00:38:31.897Z,8.80
2023-04-02T00:41:02.815Z,8.70
2023-04-02T00:43:36.115Z,8.90
2023-04-02T00:46:13.749Z,8.90
2023-04-02T00:48:51.704Z,9.20
2023-04-02T00:51:34.250Z,8.80
2023-04-02T00:54:05.560Z,9.00
2023-04-02T00:56:40.762Z,9.00
2023-04-02T00:59:34.844Z,9.10
2023-04-02T01:02:15.322Z,9.10
2023-04-02T01:04:42.826Z,9.20
2023-04-02T01:07:12.416Z,9.00
2023-04-02T01:09:45.600Z,9.10
2023-04-02T01:12:30.903Z,8.70
2023-04-02T01:15:10.070Z,9.00
2023-04-02T01:18:08.273Z,9.10
2023-04-02T01:20:57.091Z,8.90
2023-04-02T01:23:48.365Z,8.90
2023-04-02T01:26:54.958Z,8.90
2023-04-02T01:29:24.864Z,8.90
2023-04-02T01:31:55.896Z,8.70
2023-04-02T01:34:26.864Z,8.90
2023-04-02T01:37:16.988Z,8.80
2023-04-02T01:40:02.290Z,9.20
2023-04-02T01:42:41.657Z,8.80
2023-04-02T01:45:12.870Z,8.70
2023-04-02T01:47:41.359Z,8.80
2023-04-02T01:50:32.066Z,8.80
2023-04-02T01:53:02.992Z,8.70
2023-04-02T01:55:47.631Z,8.90
2023-04-02T01:58:20.730Z,9.00
2023-04-02T02:01:02.386Z,8.80
2023-04-02T02:03:30.620Z,8.90
2023-04-02T02:05:58.856Z,9.00
2023-04-02T02:08:38.394Z,8.80
2023-04-02T02:11:16.111Z,8.90
2023-04-02T02:13:56.059Z,8.70
2023-04-02T02:16:24.567Z,8.90
2023-04-02T02:18:56.841Z,8.90
2023-04-02T02:21:44.714Z,8.80
2023-04-02T02:24:25.782Z,8.80
2023-04-02T02:27:15.630Z,8.70
2023-04-02T02:29:45.814Z,8.80
2023-04-02T02:32:14.444Z,8.90
2023-04-02T02:34:49.436Z,8.90
2023-04-02T02:37:25.116Z,8.70
2023-04-02T02:39:56.480Z,8.80
2023-04-02T02:42:49.493Z,8.60
2023-04-02T02:45:21.693Z,8.70
2023-04-02T02:47:50.506Z,8.80
2023-04-02T02:50:26.054Z,8.60
2023-04-02T02:52:56.529Z,8.40
2023-04-02T02:55:30.222Z,8.70
2023-04-02T02:58:11.924Z,8.60
2023-04-02T03:00:41.071Z,8.40
2023-04-02T03:03:16.307Z,8.60
2023-04-02T03:05:44.355Z,8.70
2023-04-02T03:08:19.996Z,8.40
2023-04-02T03:11:12.818Z,8.50
2023-04-02T03:13:46.790Z,8.50
2023-04-02T03:16:24.758Z,8.40
2023-04-02T03:18:57.908Z,8.40
2023-04-02T03:21:38.598Z,8.60
2023-04-02T03:24:12.754Z,8.60
2023-04-02T03:27:18.505Z,8.50
2023-04-02T03:29:59.013Z,8.40
2023-04-02T03:32:32.885Z,8.60
2023-04-02T03:35:38.377Z,8.50
2023-04-02T03:38:23.051Z,8.40
2023-04-02T03:41:05.232Z,8.50
2023-04-02T03:43:41.448Z,8.60
2023-04-02T03:46:11.935Z,8.50
2023-04-02T03:48:45.152Z,8.60
2023-04-02T03:51:30.713Z,8.50
2023-04-02T03:53:58.616Z,8.40
2023-04-02T03:56:40.136Z,8.40
2023-04-02T03:59:18.364Z,8.40
2023-04-02T04:02:03.516Z,8.30
2023-04-02T04:04:32.849Z,8.20
2023-04-02T04:07:01.872Z,8.30
2023-04-02T04:09:38.663Z,8.50
2023-04-02T04:12:28.776Z,8.10
2023-04-02T04:15:02.760Z,8.20
2023-04-02T04:17:40.835Z,8.20
2023-04-02T04:20:22.090Z,8.10
2023-04-02T04:22:56.048Z,7.90
2023-04-02T04:25:30.407Z,8.10
2023-04-02T04:28:09.352Z,7.90
2023-04-02T04:31:10.644Z,7.90
2023-04-02T04:33:50.934Z,7.60
2023-04-02T04:36:31.594Z,7.50
2023-04-02T04:39:05.901Z,7.70
2023-04-02T04:41:40.053Z,7.70
2023-04-02T04:44:19.354Z,7.60
2023-04-02T04:47:02.570Z,7.30
2023-04-02T04:49:53.026Z,7.60
2023-04-02T04:52:25.940Z,7.70
2023-04-02T04:54:53.188Z,7.70
2023-04-02T04:57:34.078Z,7.50
2023-04-02T05:03:54.507Z,7.40
2023-04-02T05:06:45.179Z,7.30
2023-04-02T05:09:28.789Z,7.30
2023-04-02T05:12:26.272Z,7.50
2023-04-02T05:15:21.532Z,7.70
2023-04-02T05:18:10.430Z,7.40
2023-04-02T05:20:49.035Z,7.60
2023-04-02T05:23:55.287Z,7.60
2023-04-02T05:26:42.265Z,7.70
2023-04-02T05:29:22.526Z,7.50
2023-04-02T05:32:02.473Z,7.90
2023-04-02T05:34:33.581Z,7.90
2023-04-02T05:37:01.116Z,8.00
2023-04-02T05:39:28.641Z,8.10
2023-04-02T05:42:03.622Z,7.80
2023-04-02T05:44:39.281Z,8.00
2023-04-02T05:47:23.882Z,7.70
2023-04-02T05:50:40.542Z,7.90
2023-04-02T05:53:17.508Z,7.90
2023-04-02T05:55:53.924Z,7.80
2023-04-02T05:58:36.293Z,7.60
2023-04-02T06:01:45.876Z,7.50
2023-04-02T06:04:19.166Z,8.00
2023-04-02T06:07:12.470Z,7.60
2023-04-02T06:09:58.070Z,8.00
2023-04-02T06:12:33.360Z,7.80
2023-04-02T06:15:00.442Z,8.00
2023-04-02T06:17:28.018Z,7.80
2023-04-02T06:19:58.840Z,8.10
2023-04-02T06:22:39.926Z,7.90
2023-04-02T06:25:18.400Z,8.00
2023-04-02T06:27:47.342Z,8.00
2023-04-02T06:30:42.530Z,8.10
2023-04-02T06:33:12.983Z,8.10
2023-04-02T06:35:43.239Z,8.40
2023-04-02T06:38:21.757Z,8.40
2023-04-02T06:41:03.445Z,8.40
2023-04-02T06:43:54.261Z,8.50
2023-04-02T06:46:32.686Z,8.60
2023-04-02T06:49:40.300Z,8.40
2023-04-02T06:52:30.292Z,8.50
2023-04-02T06:54:57.871Z,8.80
2023-04-02T06:57:25.849Z,8.50
2023-04-02T06:59:53.804Z,8.90
2023-04-02T07:02:30.554Z,8.80
2023-04-02T07:05:04.703Z,9.10
2023-04-02T07:07:32.183Z,9.20
2023-04-02T07:09:59.398Z,9.40
2023-04-02T07:12:27.313Z,9.50
2023-04-02T07:14:55.169Z,9.40
2023-04-02T07:17:23.194Z,9.30
2023-04-02T07:19:50.978Z,9.30
2023-04-02T07:22:18.889Z,9.70
2023-04-02T07:24:46.780Z,9.70
2023-04-02T07:27:15.325Z,9.80
2023-04-02T07:29:47.767Z,9.90
2023-04-02T07:32:15.953Z,9.90
2023-04-02T07:34:43.336Z,9.90
2023-04-02T07:37:16.257Z,10.30
2023-04-02T07:39:43.765Z,10.30
2023-04-02T07:42:11.448Z,10.30
2023-04-02T07:44:39.112Z,10.30
2023-04-02T07:47:06.509Z,10.40
2023-04-02T07:49:34.384Z,10.30
2023-04-02T07:52:01.616Z,10.50
2023-04-02T07:54:29.026Z,10.80
2023-04-02T07:56:56.673Z,10.60
2023-04-02T07:59:23.818Z,10.70
2023-04-02T08:01:53.250Z,10.90
2023-04-02T08:07:05.985Z,10.80
2023-04-02T08:09:33.348Z,11.40
2023-04-02T08:12:00.800Z,11.10
2023-04-02T08:14:28.507Z,11.40
2023-04-02T08:16:59.036Z,11.20
2023-04-02T08:19:26.111Z,11.70
2023-04-02T08:21:54.250Z,11.80
2023-04-02T08:24:21.842Z,11.90
2023-04-02T08:26:51.687Z,11.90
2023-04-02T08:29:19.818Z,12.00
2023-04-02T08:31:47.119Z,12.00
2023-04-02T08:34:14.648Z,12.20
2023-04-02T08:36:45.400Z,12.10
2023-04-02T08:39:12.906Z,12.30
2023-04-02T08:42:03.393Z,12.00
2023-04-02T08:44:53.003Z,12.10
2023-04-02T08:47:22.070Z,12.50
2023-04-02T08:49:54.797Z,12.40
2023-04-02T08:52:27.238Z,12.50
2023-04-02T08:54:56.461Z,12.50
2023-04-02T08:57:57.294Z,12.70
2023-04-02T09:00:45.024Z,12.50
2023-04-02T09:03:27.775Z,12.50
2023-04-02T09:05:59.111Z,12.60
2023-04-02T09:08:29.202Z,13.10
2023-04-02T09:11:09.826Z,12.90
2023-04-02T09:13:46.672Z,13.30
2023-04-02T09:16:22.789Z,13.00
2023-04-02T09:18:52.817Z,13.10
2023-04-02T09:21:42.153Z,13.30
2023-04-02T09:24:13.668Z,13.30
2023-04-02T09:26:45.385Z,13.60
2023-04-02T09:29:12.926Z,13.70
2023-04-02T09:31:55.766Z,13.70
2023-04-02T09:34:34.688Z,14.10
2023-04-02T09:37:19.348Z,14.20
2023-04-02T09:39:46.987Z,14.30
2023-04-02T09:42:38.963Z,14.30
2023-04-02T09:48:23.368Z,13.60
2023-04-02T09:50:50.668Z,13.50
2023-04-02T09:53:36.353Z,13.40
2023-04-02T09:56:22.049Z,13.50
2023-04-02T09:59:15.706Z,13.30
2023-04-02T10:01:48.127Z,13.30
2023-04-02T10:04:44.790Z,13.50
2023-04-02T10:07:44.136Z,13.60
2023-04-02T10:10:19.857Z,13.70
2023-04-02T10:12:59.108Z,13.60
2023-04-02T10:15:34.246Z,13.70
2023-04-02T10:18:17.778Z,13.80
2023-04-02T10:20:59.098Z,13.70
2023-04-02T10:23:30.642Z,13.70
2023-04-02T10:26:18.861Z,13.70
2023-04-02T10:29:07.086Z,13.70
2023-04-02T10:32:16.778Z,13.80
2023-04-02T10:35:11.732Z,14.10
2023-04-02T10:37:51.116Z,13.80
2023-04-02T10:40:45.985Z,13.80
2023-04-02T10:43:31.776Z,13.90
2023-04-02T10:46:17.529Z,14.40
2023-04-02T10:48:53.937Z,14.80
2023-04-02T10:51:44.486Z,15.10
2023-04-02T10:54:28.145Z,15.30
2023-04-02T10:57:02.997Z,15.30
2023-04-02T10:59:37.792Z,15.20
2023-04-02T11:02:30.120Z,15.30
2023-04-02T11:05:02.434Z,15.10
2023-04-02T11:07:45.543Z,14.80
2023-04-02T11:10:19.893Z,14.80
2023-04-02T11:13:12.679Z,15.40
2023-04-02T11:15:40.657Z,15.60
2023-04-02T11:18:22.056Z,16.20
2023-04-02T11:20:57.546Z,16.00
2023-04-02T11:23:29.719Z,15.80
2023-04-02T11:26:29.705Z,15.90
2023-04-02T11:29:21.397Z,16.10
2023-04-02T11:31:53.630Z,15.90
2023-04-02T11:34:43.270Z,15.90
2023-04-02T11:37:30.866Z,15.90
2023-04-02T11:40:00.385Z,15.70
2023-04-02T11:42:31.071Z,15.70
2023-04-02T11:45:21.561Z,15.60
2023-04-02T11:48:08.665Z,15.80
2023-04-02T11:50:44.782Z,15.60
2023-04-02T11:53:12.127Z,15.80
2023-04-02T11:55:43.725Z,16.00
2023-04-02T11:58:28.454Z,16.30
2023-04-02T12:01:18.633Z,16.20
2023-04-02T12:03:52.525Z,16.50
2023-04-02T12:06:40.044Z,16.20
2023-04-02T12:09:24.296Z,16.50
2023-04-02T12:11:54.717Z,16.90
2023-04-02T12:14:41.084Z,17.40
2023-04-02T12:17:28.612Z,17.10
2023-04-02T12:20:08.478Z,17.30
2023-04-02T12:22:40.076Z,17.00
2023-04-02T12:25:30.357Z,17.20
2023-04-02T12:28:11.401Z,17.20
2023-04-02T12:30:39.432Z,17.70
2023-04-02T12:33:31.691Z,17.90
2023-04-02T12:36:01.554Z,17.80
2023-04-02T12:38:31.058Z,18.20
2023-04-02T12:41:15.968Z,18.60
2023-04-02T12:43:43.317Z,19.10
2023-04-02T12:46:14.812Z,19.40
2023-04-02T12:48:43.113Z,19.40
2023-04-02T12:51:11.556Z,19.70
2023-04-02T12:53:42.287Z,20.30
2023-04-02T12:56:20.261Z,21.00
2023-04-02T12:58:54.620Z,21.50
2023-04-02T13:01:24.937Z,22.20
2023-04-02T13:04:09.023Z,22.60
2023-04-02T13:06:36.773Z,22.70
2023-04-02T13:09:07.561Z,23.00
2023-04-02T13:11:40.768Z,23.20
2023-04-02T13:14:18.377Z,23.30
2023-04-02T13:16:46.426Z,23.60
2023-04-02T13:19:31.691Z,23.50
2023-04-02T13:22:02.362Z,23.40
2023-04-02T13:24:32.324Z,23.60
2023-04-02T13:27:03.652Z,23.60
2023-04-02T13:29:35.796Z,23.00
2023-04-02T13:32:12.023Z,22.20
2023-04-02T13:34:39.551Z,21.90
2023-04-02T13:37:07.066Z,21.90
2023-04-02T13:39:37.250Z,22.10
2023-04-02T13:42:09.015Z,22.50
2023-04-02T13:44:41.861Z,23.10
2023-04-02T13:47:14.645Z,23.60
2023-04-02T13:49:42.005Z,24.10
2023-04-02T13:52:15.187Z,24.30
2023-04-02T13:54:49.768Z,24.50
2023-04-02T13:57:17.837Z,24.70
2023-04-02T13:59:45.380Z,24.70
2023-04-02T14:02:19.150Z,24.60
2023-04-02T14:04:51.329Z,24.60
2023-04-02T14:07:46.201Z,24.10
2023-04-02T14:10:13.323Z,24.00
2023-04-02T14:12:59.141Z,23.80
2023-04-02T14:15:31.773Z,23.50
2023-04-02T14:18:17.206Z,23.50
2023-04-02T14:21:13.399Z,23.60
2023-04-02T14:23:56.783Z,24.00
2023-04-02T14:27:05.512Z,24.00
2023-04-02T14:29:48.195Z,24.00
2023-04-02T14:32:26.234Z,24.00
2023-04-02T14:35:03.249Z,23.70
2023-04-02T14:37:49.936Z,23.70
2023-04-02T14:40:37.342Z,23.60
2023-04-02T14:43:24.398Z,23.80
2023-04-02T14:46:17.825Z,23.80
2023-04-02T14:49:20.971Z,24.00
2023-04-02T14:52:03.873Z,24.20
2023-04-02T14:54:52.707Z,23.60
2023-04-02T14:57:38.528Z,23.10
2023-04-02T15:00:42.150Z,23.00
2023-04-02T15:03:15.478Z,22.80
2023-04-02T15:06:02.003Z,22.70
2023-04-02T15:08:33.567Z,22.50
2023-04-02T15:11:14.306Z,22.00
2023-04-02T15:14:00.421Z,21.40
2023-04-02T15:16:28.380Z,20.30
2023-04-02T15:19:00.877Z,19.70
2023-04-02T15:21:57.599Z,19.20
2023-04-02T15:24:41.389Z,18.50
2023-04-02T15:27:24.552Z,18.20
2023-04-02T15:29:56.305Z,17.90
2023-04-02T15:32:23.957Z,17.40
2023-04-02T15:34:59.340Z,17.50
2023-04-02T15:37:36.910Z,17.20
2023-04-02T15:40:22.175Z,17.10
2023-04-02T15:43:21.556Z,16.80
2023-04-02T15:46:03.437Z,16.60
2023-04-02T15:48:47.481Z,16.10
2023-04-02T15:51:26.656Z,16.00
2023-04-02T15:54:23.117Z,15.90
2023-04-02T15:57:24.888Z,15.70
2023-04-02T16:00:22.608Z,15.50
2023-04-02T16:03:06.808Z,15.50
2023-04-02T16:05:56.005Z,15.80
2023-04-02T16:08:28.911Z,15.70
2023-04-02T16:10:56.122Z,15.50
2023-04-02T16:13:37.740Z,15.60
2023-04-02T16:16:21.297Z,15.30
2023-04-02T16:19:22.761Z,15.10
2023-04-02T16:22:29.674Z,14.70
2023-04-02T16:25:02.009Z,14.90
2023-04-02T16:27:45.454Z,14.80
2023-04-02T16:30:27.984Z,14.40
2023-04-02T16:33:19.102Z,14.10
2023-04-02T16:35:55.824Z,14.00
2023-04-02T16:38:41.169Z,13.80
2023-04-02T16:41:23.705Z,13.80
2023-04-02T16:43:53.799Z,13.90
2023-04-02T16:46:38.177Z,13.40
2023-04-02T16:49:33.900Z,13.50
2023-04-02T16:52:28.082Z,13.00
2023-04-02T16:55:13.131Z,12.90
2023-04-02T16:58:23.407Z,12.90
2023-04-02T17:01:02.794Z,12.80
2023-04-02T17:03:41.734Z,12.80
2023-04-02T17:06:34.396Z,12.60
2023-04-02T17:09:34.314Z,12.20
2023-04-02T17:12:30.237Z,12.20
2023-04-02T17:15:01.238Z,12.30
2023-04-02T17:17:28.661Z,12.20
2023-04-02T17:20:01.459Z,11.90
2023-04-02T17:22:31.765Z,11.90
2023-04-02T17:25:03.189Z,11.70
2023-04-02T17:27:36.910Z,11.40
2023-04-02T17:30:19.468Z,11.20
2023-04-02T17:32:47.002Z,11.20
2023-04-02T17:35:42.235Z,11.30
2023-04-02T17:38:39.394Z,11.00
2023-04-02T17:41:24.695Z,11.10
2023-04-02T17:43:59.409Z,10.80
2023-04-02T17:46:45.078Z,11.00
2023-04-02T17:49:27.850Z,10.70
2023-04-02T17:52:07.494Z,10.90
2023-04-02T17:54:52.360Z,10.80
2023-04-02T17:57:46.105Z,10.40
2023-04-02T18:00:41.502Z,10.40
2023-04-02T18:03:18.188Z,10.30
2023-04-02T18:05:49.609Z,10.50
2023-04-02T18:08:43.027Z,10.50
2023-04-02T18:11:21.337Z,10.80
2023-04-02T18:14:13.514Z,10.60
2023-04-02T18:16:45.329Z,10.70
2023-04-02T18:19:34.754Z,10.40
2023-04-02T18:22:08.173Z,10.30
2023-04-02T18:24:50.902Z,10.20
2023-04-02T18:27:26.343Z,10.20
2023-04-02T18:30:26.011Z,10.00
2023-04-02T18:33:05.824Z,10.20
2023-04-02T18:35:50.646Z,9.90
2023-04-02T18:38:43.855Z,9.90
2023-04-02T18:41:32.563Z,10.00
2023-04-02T18:44:16.547Z,9.90
2023-04-02T18:46:59.423Z,9.90
2023-04-02T18:49:36.508Z,9.90
2023-04-02T18:52:13.390Z,9.90
2023-04-02T18:54:56.026Z,9.80
2023-04-02T18:57:29.065Z,9.80
2023-04-02T19:00:30.074Z,10.00
2023-04-02T19:03:20.874Z,9.60
2023-04-02T19:05:54.220Z,9.80
2023-04-02T19:08:28.551Z,9.80
2023-04-02T19:11:01.944Z,9.90
2023-04-02T19:13:29.612Z,9.60
2023-04-02T19:16:34.668Z,9.90
2023-04-02T19:19:40.331Z,9.80
2023-04-02T19:22:17.075Z,9.80
2023-04-02T19:25:02.751Z,9.90
2023-04-02T19:27:53.458Z,9.70
2023-04-02T19:30:58.716Z,9.80
2023-04-02T19:33:38.155Z,9.70
2023-04-02T19:36:05.837Z,9.70
2023-04-02T19:38:58.549Z,9.80
2023-04-02T19:41:52.049Z,9.80
2023-04-02T19:44:20.180Z,9.80
2023-04-02T19:46:47.848Z,9.50
2023-04-02T19:49:24.127Z,9.50
2023-04-02T19:51:53.580Z,9.50
2023-04-02T19:54:20.680Z,9.30
2023-04-02T19:56:48.869Z,9.80
2023-04-02T19:59:18.172Z,9.70
2023-04-02T20:01:46.866Z,9.70
2023-04-02T20:04:21.483Z,9.70
2023-04-02T20:06:48.799Z,9.60
2023-04-02T20:09:16.158Z,9.70
2023-04-02T20:11:43.289Z,9.40
2023-04-02T20:14:10.662Z,9.40
2023-04-02T20:16:38.848Z,9.60
2023-04-02T20:19:06.235Z,9.30
2023-04-02T20:21:38.638Z,9.40
2023-04-02T20:24:07.244Z,9.50
2023-04-02T20:26:35.944Z,9.50
2023-04-02T20:29:03.724Z,9.30
2023-04-02T20:31:31.184Z,9.20
2023-04-02T20:33:59.634Z,9.30
2023-04-02T20:36:26.897Z,9.20
2023-04-02T20:38:53.999Z,9.40
2023-04-02T20:41:23.564Z,9.10
2023-04-02T20:43:51.230Z,9.30
2023-04-02T20:46:18.311Z,9.30
2023-04-02T20:48:45.540Z,9.30
2023-04-02T20:51:14.716Z,9.20
2023-04-02T20:53:42.489Z,9.20
2023-04-02T20:56:15.636Z,9.20
2023-04-02T20:58:43.926Z,9.40
2023-04-02T21:01:18.641Z,9.50
2023-04-02T21:03:46.555Z,9.30
2023-04-02T21:06:20.223Z,9.40
2023-04-02T21:08:48.680Z,9.30
2023-04-02T21:11:17.238Z,9.40
2023-04-02T21:13:44.536Z,9.60
2023-04-02T21:16:20.913Z,9.40
2023-04-02T21:18:50.648Z,9.60
2023-04-02T21:21:19.575Z,9.30
2023-04-02T21:23:47.183Z,9.40
2023-04-02T21:26:18.535Z,9.30
2023-04-02T21:28:46.172Z,9.30
2023-04-02T21:31:16.514Z,9.20
2023-04-02T21:33:47.096Z,8.90
2023-04-02T21:36:20.795Z,8.70
2023-04-02T21:38:50.979Z,9.00
2023-04-02T21:41:25.064Z,8.90
2023-04-02T21:43:53.298Z,8.90
2023-04-02T21:46:23.988Z,9.10
2023-04-02T21:48:52.721Z,9.30
2023-04-02T21:51:23.221Z,9.00
2023-04-02T21:53:51.244Z,8.90
2023-04-02T21:56:21.233Z,9.30
2023-04-02T21:58:49.068Z,8.90
2023-04-02T22:01:26.556Z,8.90
2023-04-02T22:03:59.909Z,8.80
2023-04-02T22:06:30.056Z,8.80
2023-04-02T22:09:00.577Z,9.00
2023-04-02T22:11:33.594Z,8.80
2023-04-02T22:14:03.562Z,8.80
2023-04-02T22:16:34.354Z,8.90
2023-04-02T22:19:03.423Z,8.60
2023-04-02T22:21:32.013Z,8.70
2023-04-02T22:24:01.833Z,8.80
2023-04-02T22:26:31.468Z,8.70
2023-04-02T22:29:00.475Z,8.50
2023-04-02T22:31:33.591Z,8.80
2023-04-02T22:34:01.992Z,8.90
2023-04-02T22:36:31.979Z,8.60
2023-04-02T22:39:05.820Z,8.70
2023-04-02T22:41:33.630Z,8.40
2023-04-02T22:44:03.704Z,8.60
2023-04-02T22:46:31.325Z,8.60
2023-04-02T22:48:59.526Z,8.40
2023-04-02T22:51:28.072Z,8.60
2023-04-02T22:53:56.922Z,8.40
2023-04-02T22:56:28.778Z,8.50
2023-04-02T22:58:56.422Z,8.40
2023-04-02T23:01:27.814Z,8.80
2023-04-02T23:03:56.360Z,8.60
2023-04-02T23:06:25.244Z,8.50
2023-04-02T23:08:55.309Z,8.40
2023-04-02T23:11:26.170Z,8.30
2023-04-02T23:13:56.081Z,8.40
2023-04-02T23:16:27.537Z,8.40
2023-04-02T23:18:55.802Z,8.40
2023-04-02T23:21:25.646Z,8.50
2023-04-02T23:23:54.339Z,8.40
2023-04-02T23:26:27.326Z,8.50
2023-04-02T23:28:55.436Z,8.40
2023-04-02T23:31:23.646Z,8.50
2023-04-02T23:33:51.993Z,8.50
2023-04-02T23:36:28.226Z,8.30
2023-04-02T23:38:59.853Z,8.60
2023-04-02T23:41:29.142Z,8.40
2023-04-02T23:43:57.749Z,8.40
2023-04-02T23:46:26.357Z,8.70
2023-04-02T23:48:55.523Z,8.40
2023-04-02T23:51:24.037Z,8.40
2023-04-02T23:53:52.526Z,8.50
2023-04-02T23:56:20.971Z,8.40
2023-04-02T23:58:49.752Z,8.40
